A- A+ FrançaisEnglishEspañol中国

le plus proche LFBT Tarbes-Lourdes-PyrénéesLFPO Paris-Orly LFCS Bordeaux-Leognan-SaucatsLFGZ Nuits-Saint-Georges

manche à air

La météo aéronautique pour les pilotes, la préparation du vol avec les METAR (METeorological Aerodrome Report, message d'observation des conditions météorologiques pour l'aviation) et Les TAF (Terminal Aerodrome Forecast : message de prévision à court terme des conditions météorologiques pour l'aviation). Et les autres ressources comme les VAC (Visual Approch Chart) et les NOTAM (Notice To Airman) pour préprer les vols.

Aéroport Roberval (Canada) / OACI CYRJ/ IATA YRJ

L'altitude de l'aéroport Roberval est de 179 m=587 ft. Il est situé à proximité de Roberval (Canada). La météo générale à 5 jours est disponible pour Roberval situé à 2.5 km.

METAR de l'aéroport Roberval - CYRJ

CYRJ 081400Z 32010KT 40SM SCT019 BKN150 M07/M10 A3007 RMK SC4AC3 SLP198

Décodage du METAR de l'aéroport Roberval (CA)

METAR émis par CYRJ le vendredi 8 novembre 2019 à 14:00 heure TU. Attention ce METAR est obsolète car il a été émis il y a 9 heure et 16 minutes.

La visibilité est de 64.4 km=40 sm.

La température est de -7°C=19 °F et le point rosée est de -10°C=14 °F . Ce qui correspond à 79% d'humidité relative.

Le QNH est de 1018 hPa=30.06 inHg

Vent de 10 kt=19 km/h, orienté à 320°.

Nuages : Nuages épars à 1900 ft=580 mètres. Couverture nuageuse fragmentée à 15000 ft=4570 mètres.

RMK SC4AC3 SLP198

TAF de l'aéroport Roberval - CYRJ

CYRJ 081238Z 0813/0901 33010KT P6SM -SN OVC030 TEMPO 0813/0815 1SM -SHSN OVC012 FM081500 34012G22KT P6SM OVC030 TEMPO 0815/0820 5SM -SN OVC015 FM082000 30012G22KT P6SM OVC040 RMK NXT FCST BY 082000Z

CYRJ 081238Z 0813/0901 33010KT P6SM faible SN couverture nuageuse soudée à 030 temporairement 0813/0815 1SM faible SHSN couverture nuageuse soudée à 012 FM081500 34012G22KT P6SM couverture nuageuse soudée à 030 temporairement 0815/0820 5SM faible SN couverture nuageuse soudée à 015 FM082000 30012G22KT P6SM couverture nuageuse soudée à 040 remarques NXT trombe ST BY 082000Z

Aéroport à proximité de Roberval

Météo générale à 5 jours à Roberval (2.5 km)CYDO Aéroport Dolbeau St Methode (30 km)CYTF Aéroport Alma (46 km)CYRC Aéroport Chicoutimi St Honore (89 km)CYBG Aéroport Bagotville (96 km)CYLQ Aéroport La Turque (129 km)CYML Aéroport Charlesvoix (183 km)

Vue aérienne de l'aéroport Roberval

NOTAM de l'aéroport Roberval

Les NOTAM sont fournis sans aucune garantie de leur actualité. Le pilote est le seul responsable de la vérification de sa validité avant de l'utiliser opérationnellement pour préparer un vol ou l'utiliser lors de sa navigation.

Pas de NOTAM

Sources des données